Terminal Aerodrome Forecast
Issued by NWS

Home | Current Version | Previous Version | Text Only | Print | Product List | Glossary On
Versions: 1 2 3 4 5 6 7 8 9 10 11 12
000
FTUS43 KPAH 081720
TAFCGI
TAF
KCGI 081720Z 0818/0918 23006KT P6SM SKC
     FM090900 23005KT P6SM SCT025 OVC050
     FM091200 31012G22KT P6SM BKN050=

USA.gov is the U.S. government's official web portal to all federal, state and local government web resources and services.